sensor_id;sensor_type;location;lat;lon;timestamp;P1;durP1;ratioP1;P2;durP2;ratioP2
78889;SDS011;68279;48.964;14.502;2023-07-30T16:45:59;1.23;;;0.75;;
78889;SDS011;68279;48.964;14.502;2023-07-30T16:48:27;1.95;;;1.00;;
78889;SDS011;68279;48.964;14.502;2023-07-30T16:50:52;1.60;;;0.80;;
78889;SDS011;68279;48.964;14.502;2023-07-30T16:53:18;1.80;;;0.95;;
78889;SDS011;68279;48.964;14.502;2023-07-30T16:55:44;2.00;;;0.90;;
78889;SDS011;68279;48.964;14.502;2023-07-30T16:58:09;1.58;;;0.93;;
78889;SDS011;68279;48.964;14.502;2023-07-30T17:00:35;1.92;;;0.65;;
78889;SDS011;68279;48.964;14.502;2023-07-30T17:03:01;1.70;;;0.93;;
78889;SDS011;68279;48.964;14.502;2023-07-30T17:05:30;1.50;;;0.80;;
78889;SDS011;68279;48.964;14.502;2023-07-30T17:07:55;2.35;;;1.20;;
78889;SDS011;68279;48.964;14.502;2023-07-30T17:10:21;1.40;;;0.90;;
78889;SDS011;68279;48.964;14.502;2023-07-30T17:12:47;1.90;;;1.48;;
78889;SDS011;68279;48.964;14.502;2023-07-30T17:15:12;2.35;;;1.10;;
78889;SDS011;68279;48.964;14.502;2023-07-30T17:17:38;1.55;;;0.88;;
78889;SDS011;68279;48.964;14.502;2023-07-30T17:20:04;2.00;;;1.00;;
78889;SDS011;68279;48.964;14.502;2023-07-30T17:22:30;2.08;;;1.23;;
78889;SDS011;68279;48.964;14.502;2023-07-30T17:24:56;2.10;;;1.05;;
78889;SDS011;68279;48.964;14.502;2023-07-30T17:27:24;2.03;;;1.05;;
78889;SDS011;68279;48.964;14.502;2023-07-30T17:29:50;2.45;;;1.10;;
78889;SDS011;68279;48.964;14.502;2023-07-30T17:34:47;2.58;;;1.08;;
78889;SDS011;68279;48.964;14.502;2023-07-30T17:37:14;1.70;;;0.93;;
78889;SDS011;68279;48.964;14.502;2023-07-30T17:39:39;1.67;;;0.60;;
78889;SDS011;68279;48.964;14.502;2023-07-30T17:42:07;2.13;;;1.05;;
78889;SDS011;68279;48.964;14.502;2023-07-30T17:44:32;1.92;;;1.20;;
78889;SDS011;68279;48.964;14.502;2023-07-30T17:46:59;2.08;;;0.90;;
78889;SDS011;68279;48.964;14.502;2023-07-30T17:49:26;1.25;;;0.82;;
78889;SDS011;68279;48.964;14.502;2023-07-30T17:51:52;1.50;;;0.95;;
78889;SDS011;68279;48.964;14.502;2023-07-30T17:54:19;1.70;;;0.93;;
78889;SDS011;68279;48.964;14.502;2023-07-30T17:56:44;2.05;;;1.02;;
78889;SDS011;68279;48.964;14.502;2023-07-30T17:59:10;2.28;;;1.40;;
78889;SDS011;68279;48.964;14.502;2023-07-30T18:01:36;1.85;;;1.10;;
78889;SDS011;68279;48.964;14.502;2023-07-30T18:04:03;2.22;;;1.10;;
78889;SDS011;68279;48.964;14.502;2023-07-30T18:06:29;2.08;;;0.98;;
78889;SDS011;68279;48.964;14.502;2023-07-30T18:08:55;2.10;;;0.93;;
78889;SDS011;68279;48.964;14.502;2023-07-30T18:11:22;2.03;;;1.00;;
78889;SDS011;68279;48.964;14.502;2023-07-30T18:13:49;1.92;;;0.82;;
78889;SDS011;68279;48.964;14.502;2023-07-30T18:16:14;2.00;;;0.93;;
78889;SDS011;68279;48.964;14.502;2023-07-30T18:18:40;2.15;;;1.25;;
78889;SDS011;68279;48.964;14.502;2023-07-30T18:21:07;1.75;;;1.08;;
78889;SDS011;68279;48.964;14.502;2023-07-30T18:23:33;3.08;;;1.08;;
78889;SDS011;68279;48.964;14.502;2023-07-30T18:25:59;2.28;;;1.13;;
78889;SDS011;68279;48.964;14.502;2023-07-30T18:28:24;2.88;;;1.42;;
78889;SDS011;68279;48.964;14.502;2023-07-30T18:30:50;1.80;;;0.98;;
78889;SDS011;68279;48.964;14.502;2023-07-30T18:33:15;1.65;;;0.80;;
78889;SDS011;68279;48.964;14.502;2023-07-30T18:35:41;3.55;;;1.40;;
78889;SDS011;68279;48.964;14.502;2023-07-30T18:38:07;2.10;;;1.00;;
78889;SDS011;68279;48.964;14.502;2023-07-30T18:40:38;2.67;;;1.25;;
78889;SDS011;68279;48.964;14.502;2023-07-30T18:43:06;1.73;;;0.93;;
78889;SDS011;68279;48.964;14.502;2023-07-30T18:48:01;2.08;;;0.85;;
78889;SDS011;68279;48.964;14.502;2023-07-30T18:50:27;2.88;;;0.80;;
78889;SDS011;68279;48.964;14.502;2023-07-30T18:52:55;3.13;;;1.40;;
78889;SDS011;68279;48.964;14.502;2023-07-30T18:55:21;1.60;;;1.02;;
78889;SDS011;68279;48.964;14.502;2023-07-30T18:57:47;2.13;;;1.00;;
78889;SDS011;68279;48.964;14.502;2023-07-30T19:00:13;3.40;;;1.10;;
78889;SDS011;68279;48.964;14.502;2023-07-30T19:02:40;1.65;;;0.80;;
78889;SDS011;68279;48.964;14.502;2023-07-30T19:05:06;2.33;;;1.00;;
78889;SDS011;68279;48.964;14.502;2023-07-30T19:07:35;2.85;;;1.15;;
78889;SDS011;68279;48.964;14.502;2023-07-30T19:12:30;2.40;;;1.27;;
78889;SDS011;68279;48.964;14.502;2023-07-30T19:14:56;2.60;;;1.30;;
78889;SDS011;68279;48.964;14.502;2023-07-30T19:17:23;2.78;;;1.02;;
78889;SDS011;68279;48.964;14.502;2023-07-30T19:19:49;3.30;;;1.70;;
78889;SDS011;68279;48.964;14.502;2023-07-30T19:22:16;2.45;;;1.10;;
78889;SDS011;68279;48.964;14.502;2023-07-30T19:24:42;2.63;;;1.02;;
78889;SDS011;68279;48.964;14.502;2023-07-30T19:27:10;2.55;;;1.25;;
78889;SDS011;68279;48.964;14.502;2023-07-30T19:29:36;2.00;;;1.02;;
78889;SDS011;68279;48.964;14.502;2023-07-30T19:32:04;2.33;;;0.93;;
78889;SDS011;68279;48.964;14.502;2023-07-30T19:34:30;2.30;;;1.23;;
78889;SDS011;68279;48.964;14.502;2023-07-30T19:36:56;2.45;;;1.33;;
78889;SDS011;68279;48.964;14.502;2023-07-30T19:39:22;4.30;;;1.30;;
78889;SDS011;68279;48.964;14.502;2023-07-30T19:41:49;2.92;;;1.30;;
78889;SDS011;68279;48.964;14.502;2023-07-30T19:44:14;2.70;;;1.20;;
78889;SDS011;68279;48.964;14.502;2023-07-30T19:46:40;2.88;;;1.30;;
78889;SDS011;68279;48.964;14.502;2023-07-30T19:49:06;3.33;;;1.77;;
78889;SDS011;68279;48.964;14.502;2023-07-30T19:51:32;2.53;;;1.27;;
78889;SDS011;68279;48.964;14.502;2023-07-30T19:53:58;3.20;;;1.38;;
78889;SDS011;68279;48.964;14.502;2023-07-30T19:56:23;2.00;;;1.08;;
78889;SDS011;68279;48.964;14.502;2023-07-30T19:58:49;4.40;;;1.27;;
78889;SDS011;68279;48.964;14.502;2023-07-30T20:01:15;2.17;;;1.27;;
78889;SDS011;68279;48.964;14.502;2023-07-30T20:03:40;2.88;;;1.08;;
78889;SDS011;68279;48.964;14.502;2023-07-30T20:06:06;2.60;;;1.20;;
78889;SDS011;68279;48.964;14.502;2023-07-30T20:08:33;3.42;;;1.13;;
78889;SDS011;68279;48.964;14.502;2023-07-30T20:11:00;2.92;;;1.20;;
78889;SDS011;68279;48.964;14.502;2023-07-30T20:13:27;2.17;;;0.98;;
78889;SDS011;68279;48.964;14.502;2023-07-30T20:15:53;2.10;;;1.02;;
78889;SDS011;68279;48.964;14.502;2023-07-30T20:18:19;3.10;;;1.33;;
78889;SDS011;68279;48.964;14.502;2023-07-30T20:20:44;2.53;;;1.30;;
78889;SDS011;68279;48.964;14.502;2023-07-30T20:23:10;2.15;;;1.20;;
78889;SDS011;68279;48.964;14.502;2023-07-30T20:25:36;2.40;;;1.33;;
78889;SDS011;68279;48.964;14.502;2023-07-30T20:28:03;3.00;;;1.20;;
78889;SDS011;68279;48.964;14.502;2023-07-30T20:30:31;3.25;;;1.17;;
78889;SDS011;68279;48.964;14.502;2023-07-30T20:32:58;3.92;;;1.15;;
78889;SDS011;68279;48.964;14.502;2023-07-30T20:35:24;2.38;;;1.15;;
78889;SDS011;68279;48.964;14.502;2023-07-30T20:37:50;3.38;;;1.60;;
78889;SDS011;68279;48.964;14.502;2023-07-30T20:40:17;2.90;;;1.50;;
78889;SDS011;68279;48.964;14.502;2023-07-30T20:42:45;2.45;;;1.05;;
78889;SDS011;68279;48.964;14.502;2023-07-30T20:45:11;2.03;;;1.23;;
78889;SDS011;68279;48.964;14.502;2023-07-30T20:47:37;3.47;;;1.20;;
78889;SDS011;68279;48.964;14.502;2023-07-30T20:50:02;3.08;;;0.93;;
78889;SDS011;68279;48.964;14.502;2023-07-30T20:52:28;2.30;;;1.23;;
78889;SDS011;68279;48.964;14.502;2023-07-30T20:54:55;2.22;;;1.05;;
78889;SDS011;68279;48.964;14.502;2023-07-30T20:57:21;2.40;;;1.80;;
78889;SDS011;68279;48.964;14.502;2023-07-30T20:59:47;2.15;;;1.20;;
78889;SDS011;68279;48.964;14.502;2023-07-30T21:02:12;2.67;;;1.33;;
78889;SDS011;68279;48.964;14.502;2023-07-30T21:04:38;3.58;;;1.23;;
78889;SDS011;68279;48.964;14.502;2023-07-30T21:07:04;3.80;;;1.30;;
78889;SDS011;68279;48.964;14.502;2023-07-30T21:09:29;4.35;;;1.27;;
78889;SDS011;68279;48.964;14.502;2023-07-30T21:11:55;3.72;;;1.50;;
78889;SDS011;68279;48.964;14.502;2023-07-30T21:14:21;3.92;;;1.63;;
78889;SDS011;68279;48.964;14.502;2023-07-30T21:16:46;3.42;;;1.23;;
78889;SDS011;68279;48.964;14.502;2023-07-30T21:19:12;2.53;;;1.27;;
78889;SDS011;68279;48.964;14.502;2023-07-30T21:21:37;2.45;;;1.40;;
78889;SDS011;68279;48.964;14.502;2023-07-30T21:24:03;2.25;;;1.17;;
78889;SDS011;68279;48.964;14.502;2023-07-30T21:26:29;1.65;;;1.00;;
78889;SDS011;68279;48.964;14.502;2023-07-30T21:28:54;2.78;;;1.17;;
78889;SDS011;68279;48.964;14.502;2023-07-30T21:31:20;2.67;;;1.27;;
78889;SDS011;68279;48.964;14.502;2023-07-30T21:33:45;3.13;;;1.35;;
78889;SDS011;68279;48.964;14.502;2023-07-30T21:36:11;2.85;;;1.10;;
78889;SDS011;68279;48.964;14.502;2023-07-30T21:38:37;4.13;;;1.20;;
78889;SDS011;68279;48.964;14.502;2023-07-30T21:41:03;2.97;;;1.10;;
78889;SDS011;68279;48.964;14.502;2023-07-30T21:43:29;3.97;;;1.58;;
78889;SDS011;68279;48.964;14.502;2023-07-30T21:45:55;6.20;;;1.58;;
78889;SDS011;68279;48.964;14.502;2023-07-30T21:48:22;2.80;;;1.45;;
78889;SDS011;68279;48.964;14.502;2023-07-30T21:51:00;5.07;;;1.90;;
78889;SDS011;68279;48.964;14.502;2023-07-30T21:53:29;4.72;;;1.58;;
78889;SDS011;68279;48.964;14.502;2023-07-30T21:55:56;3.40;;;1.20;;
78889;SDS011;68279;48.964;14.502;2023-07-30T21:58:22;5.45;;;1.45;;
78889;SDS011;68279;48.964;14.502;2023-07-30T22:00:52;2.90;;;1.08;;
78889;SDS011;68279;48.964;14.502;2023-07-30T22:03:22;3.25;;;1.60;;
78889;SDS011;68279;48.964;14.502;2023-07-30T22:05:48;3.25;;;1.40;;
78889;SDS011;68279;48.964;14.502;2023-07-30T22:08:14;3.28;;;1.58;;
78889;SDS011;68279;48.964;14.502;2023-07-30T22:10:40;6.30;;;1.63;;
78889;SDS011;68279;48.964;14.502;2023-07-30T22:13:10;3.00;;;1.35;;
78889;SDS011;68279;48.964;14.502;2023-07-30T22:15:37;3.30;;;1.58;;
78889;SDS011;68279;48.964;14.502;2023-07-30T22:18:03;5.63;;;1.95;;
78889;SDS011;68279;48.964;14.502;2023-07-30T22:20:29;3.90;;;1.52;;
78889;SDS011;68279;48.964;14.502;2023-07-30T22:22:55;4.82;;;1.60;;
78889;SDS011;68279;48.964;14.502;2023-07-30T22:25:20;2.90;;;1.65;;
78889;SDS011;68279;48.964;14.502;2023-07-30T22:27:46;2.97;;;1.63;;
78889;SDS011;68279;48.964;14.502;2023-07-30T22:30:11;3.35;;;1.60;;
78889;SDS011;68279;48.964;14.502;2023-07-30T22:32:37;4.00;;;1.98;;
78889;SDS011;68279;48.964;14.502;2023-07-30T22:35:03;4.90;;;1.92;;
78889;SDS011;68279;48.964;14.502;2023-07-30T22:37:30;4.53;;;1.63;;
78889;SDS011;68279;48.964;14.502;2023-07-30T22:39:55;3.40;;;1.60;;
78889;SDS011;68279;48.964;14.502;2023-07-30T22:42:21;4.22;;;1.20;;
78889;SDS011;68279;48.964;14.502;2023-07-30T22:44:47;2.80;;;1.45;;
78889;SDS011;68279;48.964;14.502;2023-07-30T22:47:13;3.17;;;1.83;;
78889;SDS011;68279;48.964;14.502;2023-07-30T22:49:39;3.60;;;1.92;;
78889;SDS011;68279;48.964;14.502;2023-07-30T22:52:04;3.17;;;1.73;;
78889;SDS011;68279;48.964;14.502;2023-07-30T22:54:30;3.03;;;1.50;;
78889;SDS011;68279;48.964;14.502;2023-07-30T22:56:56;5.07;;;1.65;;
78889;SDS011;68279;48.964;14.502;2023-07-30T22:59:22;2.78;;;1.35;;
78889;SDS011;68279;48.964;14.502;2023-07-30T23:01:47;2.65;;;1.38;;
78889;SDS011;68279;48.964;14.502;2023-07-30T23:04:13;3.13;;;1.42;;
78889;SDS011;68279;48.964;14.502;2023-07-30T23:06:38;2.53;;;1.63;;
78889;SDS011;68279;48.964;14.502;2023-07-30T23:09:04;5.30;;;1.60;;
78889;SDS011;68279;48.964;14.502;2023-07-30T23:11:31;2.35;;;1.17;;
78889;SDS011;68279;48.964;14.502;2023-07-30T23:13:56;3.97;;;2.03;;
78889;SDS011;68279;48.964;14.502;2023-07-30T23:16:22;4.63;;;1.55;;
78889;SDS011;68279;48.964;14.502;2023-07-30T23:18:47;4.13;;;1.73;;
78889;SDS011;68279;48.964;14.502;2023-07-30T23:21:14;3.67;;;1.67;;
78889;SDS011;68279;48.964;14.502;2023-07-30T23:23:40;4.07;;;1.75;;
78889;SDS011;68279;48.964;14.502;2023-07-30T23:26:08;3.75;;;1.70;;
78889;SDS011;68279;48.964;14.502;2023-07-30T23:28:37;3.30;;;2.08;;
78889;SDS011;68279;48.964;14.502;2023-07-30T23:31:03;4.43;;;1.70;;
78889;SDS011;68279;48.964;14.502;2023-07-30T23:33:29;3.38;;;1.67;;
78889;SDS011;68279;48.964;14.502;2023-07-30T23:35:55;3.90;;;1.40;;
78889;SDS011;68279;48.964;14.502;2023-07-30T23:38:20;5.65;;;1.90;;
78889;SDS011;68279;48.964;14.502;2023-07-30T23:40:46;6.07;;;1.55;;
78889;SDS011;68279;48.964;14.502;2023-07-30T23:43:12;5.03;;;2.05;;
78889;SDS011;68279;48.964;14.502;2023-07-30T23:45:38;2.72;;;1.42;;
78889;SDS011;68279;48.964;14.502;2023-07-30T23:48:04;3.38;;;1.58;;
78889;SDS011;68279;48.964;14.502;2023-07-30T23:50:30;3.05;;;1.50;;
78889;SDS011;68279;48.964;14.502;2023-07-30T23:52:56;3.10;;;1.60;;
78889;SDS011;68279;48.964;14.502;2023-07-30T23:55:22;3.00;;;1.75;;
78889;SDS011;68279;48.964;14.502;2023-07-30T23:57:47;3.25;;;1.90;;
